sensor_id;sensor_type;location;lat;lon;timestamp;pressure;altitude;pressure_sealevel;temperature;humidity
46211;BME280;52144;48.040;-1.594;2023-10-31T00:00:55;99461.13;;;15.55;94.64
46211;BME280;52144;48.040;-1.594;2023-10-31T00:03:24;99468.41;;;15.64;94.98
46211;BME280;52144;48.040;-1.594;2023-10-31T00:05:52;99465.41;;;15.57;93.98
46211;BME280;52144;48.040;-1.594;2023-10-31T00:08:20;99462.25;;;15.52;94.61
46211;BME280;52144;48.040;-1.594;2023-10-31T00:10:48;99470.28;;;15.52;94.56
46211;BME280;52144;48.040;-1.594;2023-10-31T00:13:16;99470.69;;;15.48;94.87
46211;BME280;52144;48.040;-1.594;2023-10-31T00:15:44;99476.06;;;15.48;94.07
46211;BME280;52144;48.040;-1.594;2023-10-31T00:18:11;99479.81;;;15.35;93.10
46211;BME280;52144;48.040;-1.594;2023-10-31T00:20:41;99475.03;;;15.39;94.78
46211;BME280;52144;48.040;-1.594;2023-10-31T00:23:09;99486.41;;;15.52;94.21
46211;BME280;52144;48.040;-1.594;2023-10-31T00:25:36;99483.13;;;15.49;92.63
46211;BME280;52144;48.040;-1.594;2023-10-31T00:28:04;99482.28;;;15.48;93.08
46211;BME280;52144;48.040;-1.594;2023-10-31T00:30:32;99487.53;;;15.29;94.04
46211;BME280;52144;48.040;-1.594;2023-10-31T00:33:00;99483.13;;;15.28;94.83
46211;BME280;52144;48.040;-1.594;2023-10-31T00:35:28;99486.47;;;15.20;94.40
46211;BME280;52144;48.040;-1.594;2023-10-31T00:37:58;99491.06;;;15.29;95.78
46211;BME280;52144;48.040;-1.594;2023-10-31T00:40:26;99489.69;;;15.35;95.52
46211;BME280;52144;48.040;-1.594;2023-10-31T00:42:54;99493.81;;;15.39;94.08
46211;BME280;52144;48.040;-1.594;2023-10-31T00:45:23;99498.28;;;15.29;94.52
46211;BME280;52144;48.040;-1.594;2023-10-31T00:47:51;99500.47;;;15.23;93.17
46211;BME280;52144;48.040;-1.594;2023-10-31T00:50:19;99507.50;;;15.36;94.25
46211;BME280;52144;48.040;-1.594;2023-10-31T00:52:47;99510.97;;;15.27;93.14
46211;BME280;52144;48.040;-1.594;2023-10-31T00:55:16;99509.56;;;15.32;94.25
46211;BME280;52144;48.040;-1.594;2023-10-31T00:57:44;99506.00;;;15.43;94.35
46211;BME280;52144;48.040;-1.594;2023-10-31T01:00:12;99511.56;;;15.51;94.30
46211;BME280;52144;48.040;-1.594;2023-10-31T01:02:40;99508.88;;;15.51;94.42
46211;BME280;52144;48.040;-1.594;2023-10-31T01:05:10;99515.09;;;15.52;95.02
46211;BME280;52144;48.040;-1.594;2023-10-31T01:07:38;99513.97;;;15.54;94.74
46211;BME280;52144;48.040;-1.594;2023-10-31T01:10:06;99508.72;;;15.53;92.94
46211;BME280;52144;48.040;-1.594;2023-10-31T01:12:36;99510.16;;;15.36;94.45
46211;BME280;52144;48.040;-1.594;2023-10-31T01:15:05;99507.97;;;15.41;93.45
46211;BME280;52144;48.040;-1.594;2023-10-31T01:17:33;99508.41;;;15.25;96.03
46211;BME280;52144;48.040;-1.594;2023-10-31T01:20:01;99523.03;;;15.53;94.91
46211;BME280;52144;48.040;-1.594;2023-10-31T01:22:29;99519.34;;;15.54;93.87
46211;BME280;52144;48.040;-1.594;2023-10-31T01:24:56;99516.31;;;15.69;94.43
46211;BME280;52144;48.040;-1.594;2023-10-31T01:27:24;99518.75;;;15.72;93.40
46211;BME280;52144;48.040;-1.594;2023-10-31T01:29:53;99521.81;;;15.67;93.25
46211;BME280;52144;48.040;-1.594;2023-10-31T01:32:21;99532.28;;;15.81;93.79
46211;BME280;52144;48.040;-1.594;2023-10-31T01:34:49;99536.53;;;15.84;92.84
46211;BME280;52144;48.040;-1.594;2023-10-31T01:37:17;99548.94;;;15.85;92.49
46211;BME280;52144;48.040;-1.594;2023-10-31T01:39:45;99540.06;;;15.84;92.63
46211;BME280;52144;48.040;-1.594;2023-10-31T01:42:13;99545.44;;;15.84;92.29
46211;BME280;52144;48.040;-1.594;2023-10-31T01:44:42;99550.06;;;15.82;92.44
46211;BME280;52144;48.040;-1.594;2023-10-31T01:47:11;99555.13;;;15.76;91.93
46211;BME280;52144;48.040;-1.594;2023-10-31T01:49:39;99568.69;;;15.74;91.73
46211;BME280;52144;48.040;-1.594;2023-10-31T01:52:07;99571.25;;;15.76;91.86
46211;BME280;52144;48.040;-1.594;2023-10-31T01:54:35;99581.28;;;15.74;91.70
46211;BME280;52144;48.040;-1.594;2023-10-31T01:57:04;99577.13;;;15.70;92.21
46211;BME280;52144;48.040;-1.594;2023-10-31T01:59:33;99576.91;;;15.61;92.12
46211;BME280;52144;48.040;-1.594;2023-10-31T02:02:00;99585.41;;;15.67;92.42
46211;BME280;52144;48.040;-1.594;2023-10-31T02:04:30;99588.38;;;15.63;91.04
46211;BME280;52144;48.040;-1.594;2023-10-31T02:06:58;99577.97;;;15.49;90.88
46211;BME280;52144;48.040;-1.594;2023-10-31T02:09:25;99588.28;;;15.54;92.13
46211;BME280;52144;48.040;-1.594;2023-10-31T02:11:55;99593.66;;;15.54;92.14
46211;BME280;52144;48.040;-1.594;2023-10-31T02:14:23;99594.78;;;15.51;92.52
46211;BME280;52144;48.040;-1.594;2023-10-31T02:16:51;99615.31;;;15.41;92.85
46211;BME280;52144;48.040;-1.594;2023-10-31T02:19:20;99614.31;;;15.53;92.96
46211;BME280;52144;48.040;-1.594;2023-10-31T02:21:50;99611.34;;;15.56;92.39
46211;BME280;52144;48.040;-1.594;2023-10-31T02:24:18;99611.34;;;15.56;91.33
46211;BME280;52144;48.040;-1.594;2023-10-31T02:26:45;99616.97;;;15.53;92.19
46211;BME280;52144;48.040;-1.594;2023-10-31T02:29:13;99623.31;;;15.52;93.31
46211;BME280;52144;48.040;-1.594;2023-10-31T02:31:41;99621.13;;;15.57;93.08
46211;BME280;52144;48.040;-1.594;2023-10-31T02:34:09;99626.47;;;15.57;91.93
46211;BME280;52144;48.040;-1.594;2023-10-31T02:36:36;99629.00;;;15.59;92.31
46211;BME280;52144;48.040;-1.594;2023-10-31T02:39:05;99631.56;;;15.60;91.47
46211;BME280;52144;48.040;-1.594;2023-10-31T02:41:34;99639.44;;;15.52;92.59
46211;BME280;52144;48.040;-1.594;2023-10-31T02:44:02;99644.28;;;15.58;91.83
46211;BME280;52144;48.040;-1.594;2023-10-31T02:46:30;99646.38;;;15.55;93.05
46211;BME280;52144;48.040;-1.594;2023-10-31T02:48:57;99646.00;;;15.59;92.95
46211;BME280;52144;48.040;-1.594;2023-10-31T02:51:25;99648.16;;;15.65;92.12
46211;BME280;52144;48.040;-1.594;2023-10-31T02:53:53;99644.59;;;15.65;91.04
46211;BME280;52144;48.040;-1.594;2023-10-31T02:56:22;99642.09;;;15.52;90.50
46211;BME280;52144;48.040;-1.594;2023-10-31T02:58:52;99651.34;;;15.27;88.38
46211;BME280;52144;48.040;-1.594;2023-10-31T03:01:19;99644.94;;;15.07;88.78
46211;BME280;52144;48.040;-1.594;2023-10-31T03:03:47;99658.84;;;15.01;90.67
46211;BME280;52144;48.040;-1.594;2023-10-31T03:06:15;99664.94;;;15.03;90.81
46211;BME280;52144;48.040;-1.594;2023-10-31T03:08:43;99656.50;;;15.08;91.15
46211;BME280;52144;48.040;-1.594;2023-10-31T03:11:22;99660.03;;;15.08;90.20
46211;BME280;52144;48.040;-1.594;2023-10-31T03:13:50;99667.63;;;15.03;91.05
46211;BME280;52144;48.040;-1.594;2023-10-31T03:16:19;99673.44;;;15.08;90.90
46211;BME280;52144;48.040;-1.594;2023-10-31T03:18:48;99672.25;;;15.01;91.32
46211;BME280;52144;48.040;-1.594;2023-10-31T03:21:16;99673.97;;;14.91;94.45
46211;BME280;52144;48.040;-1.594;2023-10-31T03:23:47;99676.63;;;15.13;93.30
46211;BME280;52144;48.040;-1.594;2023-10-31T03:26:15;99678.63;;;14.89;93.28
46211;BME280;52144;48.040;-1.594;2023-10-31T03:28:44;99685.19;;;14.96;93.08
46211;BME280;52144;48.040;-1.594;2023-10-31T03:31:13;99685.94;;;14.64;95.65
46211;BME280;52144;48.040;-1.594;2023-10-31T03:33:41;99693.75;;;14.78;94.82
46211;BME280;52144;48.040;-1.594;2023-10-31T03:36:09;99691.78;;;14.69;94.50
46211;BME280;52144;48.040;-1.594;2023-10-31T03:38:37;99700.44;;;14.73;94.12
46211;BME280;52144;48.040;-1.594;2023-10-31T03:41:05;99709.34;;;14.84;93.88
46211;BME280;52144;48.040;-1.594;2023-10-31T03:43:33;99704.44;;;14.90;92.61
46211;BME280;52144;48.040;-1.594;2023-10-31T03:46:04;99710.44;;;15.04;92.91
46211;BME280;52144;48.040;-1.594;2023-10-31T03:48:32;99708.47;;;14.95;93.36
46211;BME280;52144;48.040;-1.594;2023-10-31T03:50:59;99713.72;;;14.63;94.37
46211;BME280;52144;48.040;-1.594;2023-10-31T03:53:27;99713.47;;;14.77;92.79
46211;BME280;52144;48.040;-1.594;2023-10-31T03:55:55;99722.75;;;15.07;92.25
46211;BME280;52144;48.040;-1.594;2023-10-31T03:58:23;99722.16;;;14.92;92.42
46211;BME280;52144;48.040;-1.594;2023-10-31T04:00:51;99727.84;;;14.88;93.15
46211;BME280;52144;48.040;-1.594;2023-10-31T04:03:20;99728.59;;;14.56;94.07
46211;BME280;52144;48.040;-1.594;2023-10-31T04:05:48;99727.38;;;14.82;93.51
46211;BME280;52144;48.040;-1.594;2023-10-31T04:08:15;99732.97;;;14.79;93.50
46211;BME280;52144;48.040;-1.594;2023-10-31T04:10:43;99733.72;;;14.70;93.39
46211;BME280;52144;48.040;-1.594;2023-10-31T04:13:11;99745.31;;;14.82;93.50
46211;BME280;52144;48.040;-1.594;2023-10-31T04:15:39;99742.44;;;14.50;94.47
46211;BME280;52144;48.040;-1.594;2023-10-31T04:18:07;99751.81;;;14.55;93.60
46211;BME280;52144;48.040;-1.594;2023-10-31T04:20:36;99749.75;;;14.48;93.01
46211;BME280;52144;48.040;-1.594;2023-10-31T04:23:04;99754.59;;;14.42;94.89
46211;BME280;52144;48.040;-1.594;2023-10-31T04:25:32;99765.66;;;14.38;94.14
46211;BME280;52144;48.040;-1.594;2023-10-31T04:27:59;99771.38;;;14.57;94.58
46211;BME280;52144;48.040;-1.594;2023-10-31T04:30:28;99769.63;;;14.56;93.87
46211;BME280;52144;48.040;-1.594;2023-10-31T04:32:55;99775.16;;;14.66;94.22
46211;BME280;52144;48.040;-1.594;2023-10-31T04:35:23;99785.59;;;14.58;92.82
46211;BME280;52144;48.040;-1.594;2023-10-31T04:37:52;99789.16;;;14.70;92.90
46211;BME280;52144;48.040;-1.594;2023-10-31T04:40:20;99789.25;;;14.57;93.92
46211;BME280;52144;48.040;-1.594;2023-10-31T04:42:48;99800.66;;;14.48;94.40
46211;BME280;52144;48.040;-1.594;2023-10-31T04:45:16;99793.31;;;14.74;93.25
46211;BME280;52144;48.040;-1.594;2023-10-31T04:47:43;99803.94;;;14.87;92.10
46211;BME280;52144;48.040;-1.594;2023-10-31T04:50:11;99800.00;;;14.79;92.17
46211;BME280;52144;48.040;-1.594;2023-10-31T04:52:39;99808.06;;;14.79;91.75
46211;BME280;52144;48.040;-1.594;2023-10-31T04:55:09;99826.34;;;14.74;91.91
46211;BME280;52144;48.040;-1.594;2023-10-31T04:57:37;99820.22;;;14.61;92.52
46211;BME280;52144;48.040;-1.594;2023-10-31T05:00:05;99818.03;;;14.77;93.09
46211;BME280;52144;48.040;-1.594;2023-10-31T05:02:34;99825.72;;;14.71;93.36
46211;BME280;52144;48.040;-1.594;2023-10-31T05:05:02;99819.53;;;14.81;91.14
46211;BME280;52144;48.040;-1.594;2023-10-31T05:07:30;99820.72;;;14.77;89.06
46211;BME280;52144;48.040;-1.594;2023-10-31T05:09:59;99825.13;;;14.78;89.84
46211;BME280;52144;48.040;-1.594;2023-10-31T05:12:28;99829.13;;;14.73;89.93
46211;BME280;52144;48.040;-1.594;2023-10-31T05:14:56;99830.13;;;14.72;90.42
46211;BME280;52144;48.040;-1.594;2023-10-31T05:17:24;99830.13;;;14.72;90.16
46211;BME280;52144;48.040;-1.594;2023-10-31T05:19:52;99832.91;;;14.70;89.82
46211;BME280;52144;48.040;-1.594;2023-10-31T05:22:19;99840.50;;;14.76;90.75
46211;BME280;52144;48.040;-1.594;2023-10-31T05:24:50;99835.72;;;14.69;88.95
46211;BME280;52144;48.040;-1.594;2023-10-31T05:27:18;99836.53;;;14.58;87.40
46211;BME280;52144;48.040;-1.594;2023-10-31T05:29:47;99838.28;;;14.46;89.59
46211;BME280;52144;48.040;-1.594;2023-10-31T05:32:15;99840.63;;;14.51;92.00
46211;BME280;52144;48.040;-1.594;2023-10-31T05:34:42;99844.03;;;14.53;90.43
46211;BME280;52144;48.040;-1.594;2023-10-31T05:37:10;99853.69;;;14.55;91.19
46211;BME280;52144;48.040;-1.594;2023-10-31T05:39:38;99864.25;;;14.45;92.76
46211;BME280;52144;48.040;-1.594;2023-10-31T05:42:06;99869.38;;;14.49;91.85
46211;BME280;52144;48.040;-1.594;2023-10-31T05:44:33;99867.00;;;14.57;92.49
46211;BME280;52144;48.040;-1.594;2023-10-31T05:47:03;99865.47;;;14.66;91.83
46211;BME280;52144;48.040;-1.594;2023-10-31T05:49:31;99867.41;;;14.63;91.85
46211;BME280;52144;48.040;-1.594;2023-10-31T05:51:59;99865.41;;;14.30;92.96
46211;BME280;52144;48.040;-1.594;2023-10-31T05:54:27;99873.03;;;14.48;92.65
46211;BME280;52144;48.040;-1.594;2023-10-31T05:56:54;99874.16;;;14.32;93.46
46211;BME280;52144;48.040;-1.594;2023-10-31T05:59:22;99878.03;;;14.52;92.14
46211;BME280;52144;48.040;-1.594;2023-10-31T06:01:50;99883.06;;;14.57;92.80
46211;BME280;52144;48.040;-1.594;2023-10-31T06:04:19;99885.44;;;14.49;91.92
46211;BME280;52144;48.040;-1.594;2023-10-31T06:06:47;99893.47;;;14.37;92.85
46211;BME280;52144;48.040;-1.594;2023-10-31T06:09:15;99886.34;;;14.25;94.86
46211;BME280;52144;48.040;-1.594;2023-10-31T06:11:43;99883.66;;;14.25;95.33
46211;BME280;52144;48.040;-1.594;2023-10-31T06:14:11;99885.44;;;14.49;93.94
46211;BME280;52144;48.040;-1.594;2023-10-31T06:16:40;99892.28;;;14.53;93.63
46211;BME280;52144;48.040;-1.594;2023-10-31T06:19:09;99898.19;;;14.34;94.73
46211;BME280;52144;48.040;-1.594;2023-10-31T06:21:38;99904.38;;;14.34;94.42
46211;BME280;52144;48.040;-1.594;2023-10-31T06:24:07;99905.53;;;14.19;95.71
46211;BME280;52144;48.040;-1.594;2023-10-31T06:26:35;99903.16;;;14.27;95.55
46211;BME280;52144;48.040;-1.594;2023-10-31T06:29:03;99906.78;;;14.50;94.79
46211;BME280;52144;48.040;-1.594;2023-10-31T06:31:51;99914.56;;;14.66;93.49
46211;BME280;52144;48.040;-1.594;2023-10-31T06:34:19;99920.00;;;14.40;93.89
46211;BME280;52144;48.040;-1.594;2023-10-31T06:36:48;99923.88;;;14.36;96.26
46211;BME280;52144;48.040;-1.594;2023-10-31T06:39:18;99927.72;;;14.45;94.96
46211;BME280;52144;48.040;-1.594;2023-10-31T06:41:46;99931.28;;;14.70;93.53
46211;BME280;52144;48.040;-1.594;2023-10-31T06:44:14;99928.06;;;14.64;93.81
46211;BME280;52144;48.040;-1.594;2023-10-31T06:46:41;99943.69;;;14.71;93.42
46211;BME280;52144;48.040;-1.594;2023-10-31T06:49:09;99949.81;;;14.73;92.30
46211;BME280;52144;48.040;-1.594;2023-10-31T06:51:37;99938.97;;;14.74;92.46
46211;BME280;52144;48.040;-1.594;2023-10-31T06:54:06;99949.31;;;14.68;89.64
46211;BME280;52144;48.040;-1.594;2023-10-31T06:56:34;99952.16;;;14.40;91.98
46211;BME280;52144;48.040;-1.594;2023-10-31T06:59:02;99948.66;;;14.40;89.87
46211;BME280;52144;48.040;-1.594;2023-10-31T07:01:31;99950.41;;;14.28;91.15
46211;BME280;52144;48.040;-1.594;2023-10-31T07:03:59;99954.97;;;14.39;90.89
46211;BME280;52144;48.040;-1.594;2023-10-31T07:06:27;99962.25;;;14.37;89.56
46211;BME280;52144;48.040;-1.594;2023-10-31T07:08:54;99962.91;;;14.40;90.13
46211;BME280;52144;48.040;-1.594;2023-10-31T07:11:25;99964.63;;;14.41;90.82
46211;BME280;52144;48.040;-1.594;2023-10-31T07:13:53;99979.81;;;14.41;90.58
46211;BME280;52144;48.040;-1.594;2023-10-31T07:16:21;99980.47;;;14.44;92.98
46211;BME280;52144;48.040;-1.594;2023-10-31T07:18:48;99974.22;;;14.57;93.03
46211;BME280;52144;48.040;-1.594;2023-10-31T07:21:16;99984.09;;;14.56;92.93
46211;BME280;52144;48.040;-1.594;2023-10-31T07:23:44;99986.22;;;14.64;93.32
46211;BME280;52144;48.040;-1.594;2023-10-31T07:26:12;99982.69;;;14.51;94.15
46211;BME280;52144;48.040;-1.594;2023-10-31T07:28:41;99987.00;;;14.77;94.37
46211;BME280;52144;48.040;-1.594;2023-10-31T07:31:09;99998.63;;;14.65;95.19
46211;BME280;52144;48.040;-1.594;2023-10-31T07:33:37;99996.69;;;14.91;94.41
46211;BME280;52144;48.040;-1.594;2023-10-31T07:36:06;100004.00;;;14.89;93.59
46211;BME280;52144;48.040;-1.594;2023-10-31T07:38:34;100010.03;;;15.04;93.00
46211;BME280;52144;48.040;-1.594;2023-10-31T07:41:02;100016.28;;;14.80;94.08
46211;BME280;52144;48.040;-1.594;2023-10-31T07:43:30;100021.28;;;14.85;94.09
46211;BME280;52144;48.040;-1.594;2023-10-31T07:46:00;100020.66;;;14.81;96.74
46211;BME280;52144;48.040;-1.594;2023-10-31T07:48:28;100017.97;;;14.81;96.59
46211;BME280;52144;48.040;-1.594;2023-10-31T07:50:56;100028.38;;;14.86;95.77
46211;BME280;52144;48.040;-1.594;2023-10-31T07:53:24;100037.44;;;15.20;95.10
46211;BME280;52144;48.040;-1.594;2023-10-31T07:55:52;100042.56;;;15.23;95.63
46211;BME280;52144;48.040;-1.594;2023-10-31T07:58:20;100039.09;;;15.45;94.09
46211;BME280;52144;48.040;-1.594;2023-10-31T08:00:47;100050.84;;;15.20;96.12
46211;BME280;52144;48.040;-1.594;2023-10-31T08:03:16;100057.56;;;15.61;94.12
46211;BME280;52144;48.040;-1.594;2023-10-31T08:05:44;100052.19;;;15.61;94.81
46211;BME280;52144;48.040;-1.594;2023-10-31T08:08:12;100055.13;;;15.70;94.08
46211;BME280;52144;48.040;-1.594;2023-10-31T08:10:40;100056.03;;;15.46;94.74
46211;BME280;52144;48.040;-1.594;2023-10-31T08:13:08;100054.84;;;15.15;97.28
46211;BME280;52144;48.040;-1.594;2023-10-31T08:15:36;100054.72;;;15.52;95.87
46211;BME280;52144;48.040;-1.594;2023-10-31T08:18:03;100051.63;;;15.80;94.77
46211;BME280;52144;48.040;-1.594;2023-10-31T08:20:33;100073.41;;;16.22;93.37
46211;BME280;52144;48.040;-1.594;2023-10-31T08:23:01;100062.66;;;16.22;92.95
46211;BME280;52144;48.040;-1.594;2023-10-31T08:25:29;100069.84;;;16.11;93.97
46211;BME280;52144;48.040;-1.594;2023-10-31T08:27:57;100062.25;;;15.93;96.04
46211;BME280;52144;48.040;-1.594;2023-10-31T08:30:25;100080.69;;;16.54;93.75
46211;BME280;52144;48.040;-1.594;2023-10-31T08:32:52;100076.69;;;16.37;93.06
46211;BME280;52144;48.040;-1.594;2023-10-31T08:35:23;100079.56;;;16.79;91.92
46211;BME280;52144;48.040;-1.594;2023-10-31T08:37:52;100074.81;;;16.72;91.41
46211;BME280;52144;48.040;-1.594;2023-10-31T08:40:20;100083.78;;;16.16;93.80
46211;BME280;52144;48.040;-1.594;2023-10-31T08:42:47;100090.56;;;15.75;97.35
46211;BME280;52144;48.040;-1.594;2023-10-31T08:45:15;100091.00;;;16.27;94.34
46211;BME280;52144;48.040;-1.594;2023-10-31T08:47:43;100092.44;;;16.53;93.55
46211;BME280;52144;48.040;-1.594;2023-10-31T08:50:11;100095.88;;;16.44;94.14
46211;BME280;52144;48.040;-1.594;2023-10-31T08:52:40;100100.53;;;16.53;92.51
46211;BME280;52144;48.040;-1.594;2023-10-31T08:55:09;100105.19;;;16.29;95.47
46211;BME280;52144;48.040;-1.594;2023-10-31T08:57:37;100105.28;;;16.38;96.87
46211;BME280;52144;48.040;-1.594;2023-10-31T09:00:06;100109.16;;;16.91;93.79
46211;BME280;52144;48.040;-1.594;2023-10-31T09:02:34;100115.19;;;17.27;91.17
46211;BME280;52144;48.040;-1.594;2023-10-31T09:05:02;100106.31;;;17.36;90.95
46211;BME280;52144;48.040;-1.594;2023-10-31T09:07:30;100108.59;;;16.53;94.54
46211;BME280;52144;48.040;-1.594;2023-10-31T09:09:59;100108.75;;;17.18;92.64
46211;BME280;52144;48.040;-1.594;2023-10-31T09:12:28;100120.06;;;17.33;92.49
46211;BME280;52144;48.040;-1.594;2023-10-31T09:14:59;100113.59;;;16.92;92.49
46211;BME280;52144;48.040;-1.594;2023-10-31T09:17:27;100121.50;;;16.93;93.97
46211;BME280;52144;48.040;-1.594;2023-10-31T09:19:55;100126.53;;;16.75;93.90
46211;BME280;52144;48.040;-1.594;2023-10-31T09:22:23;100135.16;;;17.24;91.68
46211;BME280;52144;48.040;-1.594;2023-10-31T09:24:54;100123.28;;;17.15;93.76
46211;BME280;52144;48.040;-1.594;2023-10-31T09:27:21;100127.78;;;16.82;93.50
46211;BME280;52144;48.040;-1.594;2023-10-31T09:29:51;100129.16;;;17.20;91.93
46211;BME280;52144;48.040;-1.594;2023-10-31T09:32:19;100131.25;;;17.05;93.07
46211;BME280;52144;48.040;-1.594;2023-10-31T09:34:46;100132.06;;;17.29;92.10
46211;BME280;52144;48.040;-1.594;2023-10-31T09:37:15;100128.53;;;17.28;93.29
46211;BME280;52144;48.040;-1.594;2023-10-31T09:39:43;100137.13;;;17.11;93.59
46211;BME280;52144;48.040;-1.594;2023-10-31T09:42:11;100138.53;;;17.58;92.61
46211;BME280;52144;48.040;-1.594;2023-10-31T09:44:39;100132.50;;;17.66;91.23
46211;BME280;52144;48.040;-1.594;2023-10-31T09:47:08;100138.13;;;17.42;93.07
46211;BME280;52144;48.040;-1.594;2023-10-31T09:49:36;100133.50;;;17.00;94.19
46211;BME280;52144;48.040;-1.594;2023-10-31T09:52:06;100141.19;;;17.05;94.73
46211;BME280;52144;48.040;-1.594;2023-10-31T09:54:35;100148.97;;;17.19;94.81
46211;BME280;52144;48.040;-1.594;2023-10-31T09:57:04;100150.13;;;17.38;94.04
46211;BME280;52144;48.040;-1.594;2023-10-31T09:59:33;100160.44;;;17.65;93.12
46211;BME280;52144;48.040;-1.594;2023-10-31T10:02:00;100153.91;;;17.47;94.66
46211;BME280;52144;48.040;-1.594;2023-10-31T10:04:30;100154.28;;;17.42;94.91
46211;BME280;52144;48.040;-1.594;2023-10-31T10:06:59;100157.47;;;18.00;91.63
46211;BME280;52144;48.040;-1.594;2023-10-31T10:09:27;100158.09;;;17.72;92.49
46211;BME280;52144;48.040;-1.594;2023-10-31T10:11:58;100156.09;;;17.85;93.42
46211;BME280;52144;48.040;-1.594;2023-10-31T10:14:27;100152.41;;;17.86;93.06
46211;BME280;52144;48.040;-1.594;2023-10-31T10:16:57;100160.47;;;18.07;91.21
46211;BME280;52144;48.040;-1.594;2023-10-31T10:19:25;100160.84;;;18.14;90.24
46211;BME280;52144;48.040;-1.594;2023-10-31T10:21:57;100174.47;;;18.43;89.39
46211;BME280;52144;48.040;-1.594;2023-10-31T10:24:25;100170.56;;;18.26;88.74
46211;BME280;52144;48.040;-1.594;2023-10-31T10:26:53;100161.72;;;17.50;93.09
46211;BME280;52144;48.040;-1.594;2023-10-31T10:29:21;100164.16;;;18.27;89.04
46211;BME280;52144;48.040;-1.594;2023-10-31T10:31:49;100165.59;;;18.62;87.99
46211;BME280;52144;48.040;-1.594;2023-10-31T10:34:17;100172.56;;;18.34;88.67
46211;BME280;52144;48.040;-1.594;2023-10-31T10:36:47;100176.72;;;18.38;89.82
46211;BME280;52144;48.040;-1.594;2023-10-31T10:39:19;100161.41;;;18.17;90.39
46211;BME280;52144;48.040;-1.594;2023-10-31T10:41:52;100160.09;;;18.12;89.90
46211;BME280;52144;48.040;-1.594;2023-10-31T10:44:31;100170.16;;;18.10;90.23
46211;BME280;52144;48.040;-1.594;2023-10-31T10:47:02;100171.91;;;18.41;88.86
46211;BME280;52144;48.040;-1.594;2023-10-31T10:49:33;100166.53;;;18.20;89.64
46211;BME280;52144;48.040;-1.594;2023-10-31T10:52:12;100166.41;;;18.22;88.99
46211;BME280;52144;48.040;-1.594;2023-10-31T10:54:45;100163.22;;;18.69;87.46
46211;BME280;52144;48.040;-1.594;2023-10-31T10:57:21;100170.75;;;18.34;88.95
46211;BME280;52144;48.040;-1.594;2023-10-31T10:59:51;100185.91;;;18.35;89.79
46211;BME280;52144;48.040;-1.594;2023-10-31T11:02:24;100193.84;;;18.58;90.23
46211;BME280;52144;48.040;-1.594;2023-10-31T11:04:54;100184.47;;;18.62;87.64
46211;BME280;52144;48.040;-1.594;2023-10-31T11:07:23;100194.03;;;18.66;87.97
46211;BME280;52144;48.040;-1.594;2023-10-31T11:09:53;100188.31;;;18.59;89.24
46211;BME280;52144;48.040;-1.594;2023-10-31T11:12:21;100186.72;;;18.26;89.66
46211;BME280;52144;48.040;-1.594;2023-10-31T11:14:49;100206.03;;;18.31;90.45
46211;BME280;52144;48.040;-1.594;2023-10-31T11:17:22;100190.97;;;18.50;89.20
46211;BME280;52144;48.040;-1.594;2023-10-31T11:19:52;100187.78;;;18.65;88.96
46211;BME280;52144;48.040;-1.594;2023-10-31T11:22:22;100187.31;;;18.81;88.44
46211;BME280;52144;48.040;-1.594;2023-10-31T11:24:52;100189.00;;;18.82;86.63
46211;BME280;52144;48.040;-1.594;2023-10-31T11:27:20;100184.72;;;18.49;87.73
46211;BME280;52144;48.040;-1.594;2023-10-31T11:29:48;100178.47;;;18.49;87.95
46211;BME280;52144;48.040;-1.594;2023-10-31T11:32:16;100184.81;;;17.96;90.16
46211;BME280;52144;48.040;-1.594;2023-10-31T11:34:44;100174.41;;;18.64;86.60
46211;BME280;52144;48.040;-1.594;2023-10-31T11:37:23;100179.78;;;18.54;87.02
46211;BME280;52144;48.040;-1.594;2023-10-31T11:40:16;100174.78;;;18.50;87.82
46211;BME280;52144;48.040;-1.594;2023-10-31T11:42:47;100167.78;;;18.78;86.04
46211;BME280;52144;48.040;-1.594;2023-10-31T11:45:25;100171.28;;;18.90;85.44
46211;BME280;52144;48.040;-1.594;2023-10-31T11:47:54;100167.03;;;18.66;86.59
46211;BME280;52144;48.040;-1.594;2023-10-31T11:50:22;100160.50;;;18.90;85.22
46211;BME280;52144;48.040;-1.594;2023-10-31T11:53:04;100156.69;;;19.02;84.96
46211;BME280;52144;48.040;-1.594;2023-10-31T11:55:36;100160.03;;;18.84;86.18
46211;BME280;52144;48.040;-1.594;2023-10-31T11:58:18;100161.28;;;18.50;87.13
46211;BME280;52144;48.040;-1.594;2023-10-31T12:00:48;100166.78;;;18.69;86.33
46211;BME280;52144;48.040;-1.594;2023-10-31T12:03:18;100171.34;;;18.38;89.04
46211;BME280;52144;48.040;-1.594;2023-10-31T12:05:53;100159.25;;;19.03;84.91
46211;BME280;52144;48.040;-1.594;2023-10-31T12:08:26;100158.09;;;18.96;84.24
46211;BME280;52144;48.040;-1.594;2023-10-31T12:11:05;100166.00;;;19.48;83.57
46211;BME280;52144;48.040;-1.594;2023-10-31T12:13:34;100157.78;;;18.90;83.99
46211;BME280;52144;48.040;-1.594;2023-10-31T12:16:02;100167.31;;;18.94;83.89
46211;BME280;52144;48.040;-1.594;2023-10-31T12:18:30;100168.56;;;19.40;81.64
46211;BME280;52144;48.040;-1.594;2023-10-31T12:20:58;100170.69;;;19.36;82.75
46211;BME280;52144;48.040;-1.594;2023-10-31T12:23:26;100170.41;;;19.30;81.83
46211;BME280;52144;48.040;-1.594;2023-10-31T12:25:54;100165.38;;;19.06;83.57
46211;BME280;52144;48.040;-1.594;2023-10-31T12:28:25;100159.75;;;19.67;82.17
46211;BME280;52144;48.040;-1.594;2023-10-31T12:30:55;100162.16;;;19.41;81.50
46211;BME280;52144;48.040;-1.594;2023-10-31T12:33:26;100163.91;;;19.81;80.35
46211;BME280;52144;48.040;-1.594;2023-10-31T12:35:58;100158.44;;;19.61;80.69
46211;BME280;52144;48.040;-1.594;2023-10-31T12:38:27;100153.47;;;18.77;82.82
46211;BME280;52144;48.040;-1.594;2023-10-31T12:40:56;100160.38;;;18.39;85.23
46211;BME280;52144;48.040;-1.594;2023-10-31T12:43:26;100163.50;;;18.35;84.46
46211;BME280;52144;48.040;-1.594;2023-10-31T12:45:56;100168.59;;;18.90;82.30
46211;BME280;52144;48.040;-1.594;2023-10-31T12:48:24;100174.59;;;18.72;82.82
46211;BME280;52144;48.040;-1.594;2023-10-31T12:51:06;100162.63;;;18.96;81.95
46211;BME280;52144;48.040;-1.594;2023-10-31T12:53:35;100167.41;;;18.82;81.03